createdAt,value
2022-10-15T00:01:42.503Z,14.43
2022-10-15T00:04:10.972Z,13.90
2022-10-15T00:06:39.577Z,16.43
2022-10-15T00:09:07.857Z,14.80
2022-10-15T00:11:37.430Z,11.87
2022-10-15T00:14:05.740Z,15.37
2022-10-15T00:16:34.835Z,13.50
2022-10-15T00:19:02.872Z,12.70
2022-10-15T00:21:31.029Z,13.60
2022-10-15T00:23:59.685Z,15.97
2022-10-15T00:26:29.751Z,15.83
2022-10-15T00:29:02.292Z,15.63
2022-10-15T00:31:32.121Z,14.67
2022-10-15T00:34:02.757Z,13.87
2022-10-15T00:36:33.631Z,14.90
2022-10-15T00:39:02.752Z,12.37
2022-10-15T00:41:33.545Z,17.10
2022-10-15T00:44:24.284Z,16.63
2022-10-15T00:46:54.915Z,16.13
2022-10-15T00:49:27.155Z,14.53
2022-10-15T00:51:59.288Z,15.03
2022-10-15T00:54:30.194Z,14.80
2022-10-15T00:56:59.001Z,16.27
2022-10-15T00:59:31.519Z,14.40
2022-10-15T01:02:01.890Z,16.07
2022-10-15T01:04:32.407Z,17.53
2022-10-15T01:07:00.760Z,16.30
2022-10-15T01:09:29.320Z,17.90
2022-10-15T01:11:58.616Z,18.47
2022-10-15T01:14:37.915Z,20.33
2022-10-15T01:17:11.985Z,19.67
2022-10-15T01:20:10.839Z,16.83
2022-10-15T01:22:52.512Z,20.23
2022-10-15T01:25:34.707Z,21.30
2022-10-15T01:28:13.910Z,23.70
2022-10-15T01:30:48.462Z,22.93
2022-10-15T01:33:27.009Z,25.37
2022-10-15T01:36:03.978Z,24.77
2022-10-15T01:38:48.874Z,22.90
2022-10-15T01:41:25.605Z,28.47
2022-10-15T01:44:00.781Z,26.70
2022-10-15T01:46:37.272Z,23.20
2022-10-15T01:49:06.913Z,31.60
2022-10-15T01:51:37.972Z,27.90
2022-10-15T01:54:09.151Z,24.73
2022-10-15T01:56:40.021Z,25.53
2022-10-15T01:59:10.720Z,26.73
2022-10-15T02:04:21.498Z,29.70
2022-10-15T02:06:55.561Z,29.07
2022-10-15T02:09:35.253Z,27.73
2022-10-15T02:12:12.900Z,30.77
2022-10-15T02:14:46.359Z,30.90
2022-10-15T02:17:19.607Z,30.93
2022-10-15T02:19:53.207Z,27.53
2022-10-15T02:22:26.593Z,31.87
2022-10-15T02:24:59.769Z,30.43
2022-10-15T02:27:30.364Z,29.43
2022-10-15T02:30:00.648Z,28.73
2022-10-15T02:32:33.573Z,32.77
2022-10-15T02:35:03.382Z,36.30
2022-10-15T02:37:32.504Z,34.73
2022-10-15T02:40:00.704Z,36.30
2022-10-15T02:42:29.543Z,33.33
2022-10-15T02:44:57.714Z,35.73
2022-10-15T02:50:00.707Z,32.30
2022-10-15T02:52:28.794Z,36.90
2022-10-15T02:54:56.943Z,36.50
2022-10-15T02:57:25.713Z,37.07
2022-10-15T02:59:53.911Z,35.80
2022-10-15T03:02:22.110Z,34.97
2022-10-15T03:04:50.568Z,34.63
2022-10-15T03:07:20.734Z,34.20
2022-10-15T03:09:49.023Z,33.50
2022-10-15T03:12:17.545Z,33.43
2022-10-15T03:14:45.741Z,35.03
2022-10-15T03:17:13.830Z,36.20
2022-10-15T03:19:42.388Z,36.87
2022-10-15T03:22:10.360Z,33.27
2022-10-15T03:24:40.032Z,31.93
2022-10-15T03:27:08.520Z,34.07
2022-10-15T03:29:36.529Z,32.97
2022-10-15T03:32:04.746Z,32.00
2022-10-15T03:34:33.233Z,33.10
2022-10-15T03:37:01.290Z,31.40
2022-10-15T03:39:29.566Z,32.13
2022-10-15T03:41:59.500Z,34.50
2022-10-15T03:44:27.758Z,33.73
2022-10-15T03:46:55.842Z,29.23
2022-10-15T03:49:24.178Z,31.87
2022-10-15T03:51:52.206Z,32.77
2022-10-15T03:54:20.293Z,29.77
2022-10-15T03:56:48.566Z,32.07
2022-10-15T03:59:18.082Z,30.10
2022-10-15T04:01:46.360Z,29.43
2022-10-15T04:04:14.678Z,26.80
2022-10-15T04:06:42.953Z,23.07
2022-10-15T04:09:12.473Z,23.27
2022-10-15T04:11:43.872Z,25.53
2022-10-15T04:14:11.939Z,25.63
2022-10-15T04:16:41.657Z,25.40
2022-10-15T04:19:11.231Z,21.17
2022-10-15T04:21:39.627Z,21.80
2022-10-15T04:24:07.989Z,23.20
2022-10-15T04:26:36.234Z,18.63
2022-10-15T04:29:04.550Z,23.23
2022-10-15T04:31:33.572Z,18.33
2022-10-15T04:34:03.484Z,19.50
2022-10-15T04:36:31.659Z,20.10
2022-10-15T04:39:00.021Z,20.97
2022-10-15T04:41:28.674Z,18.03
2022-10-15T04:43:56.839Z,17.17
2022-10-15T04:46:25.313Z,19.47
2022-10-15T04:48:57.960Z,19.57
2022-10-15T04:51:28.319Z,17.47
2022-10-15T04:53:56.495Z,17.77
2022-10-15T04:56:24.717Z,17.10
2022-10-15T04:58:52.815Z,18.97
2022-10-15T05:01:22.416Z,14.63
2022-10-15T05:03:51.229Z,10.47
2022-10-15T05:06:21.519Z,12.17
2022-10-15T05:08:51.516Z,13.50
2022-10-15T05:11:21.802Z,12.53
2022-10-15T05:13:50.222Z,15.07
2022-10-15T05:16:20.377Z,17.07
2022-10-15T05:18:50.969Z,20.70
2022-10-15T05:21:20.033Z,23.13
2022-10-15T05:23:50.241Z,22.87
2022-10-15T05:26:21.304Z,23.47
2022-10-15T05:28:49.629Z,27.57
2022-10-15T05:31:21.247Z,26.27
2022-10-15T05:33:50.213Z,26.93
2022-10-15T05:36:20.702Z,28.23
2022-10-15T05:38:50.972Z,32.17
2022-10-15T05:41:21.239Z,37.73
2022-10-15T05:43:50.250Z,30.87
2022-10-15T05:46:19.295Z,38.10
2022-10-15T05:48:50.243Z,41.23
2022-10-15T05:51:18.723Z,40.93
2022-10-15T05:53:47.374Z,40.33
2022-10-15T05:56:16.742Z,38.80
2022-10-15T05:58:46.792Z,34.77
2022-10-15T06:01:17.886Z,38.40
2022-10-15T06:03:46.378Z,40.03
2022-10-15T06:06:16.653Z,38.23
2022-10-15T06:08:45.296Z,38.57
2022-10-15T06:11:13.733Z,38.30
2022-10-15T06:13:43.600Z,27.23
2022-10-15T06:16:17.919Z,27.93
2022-10-15T06:18:49.290Z,31.80
2022-10-15T06:21:18.575Z,36.47
2022-10-15T06:23:46.769Z,34.87
2022-10-15T06:26:14.941Z,33.80
2022-10-15T06:28:43.531Z,31.67
2022-10-15T06:31:13.607Z,33.50
2022-10-15T06:33:42.070Z,36.60
2022-10-15T06:36:13.828Z,36.40
2022-10-15T06:38:44.325Z,36.77
2022-10-15T06:41:12.718Z,32.57
2022-10-15T06:43:43.771Z,33.37
2022-10-15T06:46:13.648Z,39.33
2022-10-15T06:48:42.052Z,38.83
2022-10-15T06:51:14.091Z,37.73
2022-10-15T06:53:44.039Z,36.07
2022-10-15T06:56:12.177Z,35.10
2022-10-15T06:58:43.688Z,31.43
2022-10-15T07:01:13.176Z,37.23
2022-10-15T07:03:41.919Z,35.20
2022-10-15T07:06:11.198Z,29.77
2022-10-15T07:08:39.569Z,29.33
2022-10-15T07:11:09.996Z,29.60
2022-10-15T07:13:39.013Z,26.43
2022-10-15T07:16:07.983Z,27.70
2022-10-15T07:18:38.244Z,25.83
2022-10-15T07:21:08.486Z,25.50
2022-10-15T07:23:36.725Z,21.87
2022-10-15T07:26:05.274Z,23.70
2022-10-15T07:28:33.936Z,22.03
2022-10-15T07:31:03.389Z,20.63
2022-10-15T07:33:31.793Z,20.27
2022-10-15T07:36:06.598Z,19.87
2022-10-15T07:38:35.114Z,17.33
2022-10-15T07:41:05.839Z,16.10
2022-10-15T07:43:34.625Z,20.33
2022-10-15T07:46:03.259Z,17.03
2022-10-15T07:48:31.741Z,16.70
2022-10-15T07:51:04.056Z,17.67
2022-10-15T07:53:33.078Z,14.90
2022-10-15T07:56:01.999Z,17.53
2022-10-15T07:58:30.813Z,13.77
2022-10-15T08:01:01.668Z,13.73
2022-10-15T08:03:30.721Z,16.73
2022-10-15T08:06:03.810Z,16.67
2022-10-15T08:08:31.976Z,15.77
2022-10-15T08:11:05.448Z,15.03
2022-10-15T08:13:34.370Z,15.80
2022-10-15T08:16:02.752Z,15.63
2022-10-15T08:18:31.080Z,16.40
2022-10-15T08:21:03.076Z,16.47
2022-10-15T08:23:31.397Z,15.53
2022-10-15T08:26:00.953Z,15.60
2022-10-15T08:28:29.308Z,13.57
2022-10-15T08:31:02.781Z,13.83
2022-10-15T08:33:34.562Z,13.57
2022-10-15T08:36:06.120Z,12.00
2022-10-15T08:38:35.189Z,11.50
2022-10-15T08:41:07.371Z,12.10
2022-10-15T08:43:38.697Z,13.23
2022-10-15T08:46:12.868Z,13.17
2022-10-15T08:48:46.739Z,11.97
2022-10-15T08:51:20.305Z,12.13
2022-10-15T08:53:54.863Z,10.87
2022-10-15T08:56:28.615Z,12.20
2022-10-15T08:59:05.219Z,9.00
2022-10-15T09:01:39.741Z,9.37
2022-10-15T09:04:21.488Z,8.93
2022-10-15T09:06:57.029Z,11.03
2022-10-15T09:09:32.914Z,11.20
2022-10-15T09:12:09.809Z,10.10
2022-10-15T09:14:42.821Z,9.47
2022-10-15T09:17:20.522Z,10.53
2022-10-15T09:19:53.225Z,10.33
2022-10-15T09:22:25.962Z,9.13
2022-10-15T09:24:54.487Z,7.60
2022-10-15T09:27:32.972Z,7.13
2022-10-15T09:30:07.208Z,6.47
2022-10-15T09:32:41.205Z,6.53
2022-10-15T09:35:17.497Z,8.43
2022-10-15T09:37:56.062Z,7.93
2022-10-15T09:40:35.310Z,8.83
2022-10-15T09:43:06.110Z,8.17
2022-10-15T09:45:34.649Z,6.47
2022-10-15T09:48:04.212Z,6.97
2022-10-15T09:50:42.151Z,9.57
2022-10-15T09:53:23.265Z,7.47
2022-10-15T09:56:05.220Z,4.50
2022-10-15T09:58:40.909Z,5.00
2022-10-15T10:01:18.336Z,4.40
2022-10-15T10:03:46.525Z,6.40
2022-10-15T10:06:16.054Z,4.57
2022-10-15T10:08:53.614Z,6.07
2022-10-15T10:11:23.680Z,8.57
2022-10-15T10:13:55.768Z,5.83
2022-10-15T10:16:25.284Z,4.07
2022-10-15T10:19:12.930Z,3.60
2022-10-15T10:21:42.974Z,7.70
2022-10-15T10:24:28.799Z,5.47
2022-10-15T10:26:57.713Z,5.07
2022-10-15T10:29:35.445Z,7.23
2022-10-15T10:32:12.622Z,5.03
2022-10-15T10:34:48.773Z,8.13
2022-10-15T10:37:20.079Z,7.07
2022-10-15T10:39:54.366Z,3.27
2022-10-15T10:42:32.315Z,8.50
2022-10-15T10:45:18.795Z,8.27
2022-10-15T10:47:47.804Z,7.60
2022-10-15T10:50:34.761Z,6.07
2022-10-15T10:53:21.354Z,7.33
2022-10-15T10:55:51.913Z,5.30
2022-10-15T10:58:26.293Z,7.03
2022-10-15T11:00:55.810Z,5.70
2022-10-15T11:03:43.099Z,4.97
2022-10-15T11:06:30.173Z,4.10
2022-10-15T11:09:09.003Z,5.53
2022-10-15T11:11:47.699Z,4.93
2022-10-15T11:14:26.196Z,5.83
2022-10-15T11:17:03.850Z,8.00
2022-10-15T11:22:44.269Z,12.57
2022-10-15T11:25:24.059Z,5.20
2022-10-15T11:28:15.046Z,5.03
2022-10-15T11:30:51.572Z,6.93
2022-10-15T11:33:53.066Z,5.37
2022-10-15T11:36:37.524Z,5.67
2022-10-15T11:39:30.549Z,5.87
2022-10-15T11:42:11.464Z,6.00
2022-10-15T11:45:01.346Z,4.13
2022-10-15T11:47:43.549Z,8.33
2022-10-15T11:50:26.701Z,6.67
2022-10-15T11:53:04.838Z,8.10
2022-10-15T11:55:41.088Z,4.70
2022-10-15T11:58:18.102Z,6.57
2022-10-15T12:00:52.942Z,3.57
2022-10-15T12:03:26.020Z,7.37
2022-10-15T12:05:59.924Z,4.97
2022-10-15T12:08:31.690Z,3.07
2022-10-15T12:11:12.767Z,3.57
2022-10-15T12:13:47.392Z,5.57
2022-10-15T12:16:27.775Z,7.53
2022-10-15T12:19:06.269Z,4.67
2022-10-15T12:21:38.974Z,6.30
2022-10-15T12:24:28.530Z,6.17
2022-10-15T12:26:56.910Z,5.67
2022-10-15T12:29:29.357Z,8.47
2022-10-15T12:31:58.788Z,6.67
2022-10-15T12:34:40.643Z,8.37
2022-10-15T12:37:18.187Z,8.37
2022-10-15T12:39:52.446Z,6.43
2022-10-15T12:42:27.218Z,5.13
2022-10-15T12:44:57.388Z,4.77
2022-10-15T12:47:49.967Z,3.50
2022-10-15T12:50:21.979Z,3.80
2022-10-15T12:53:29.134Z,4.73
2022-10-15T12:56:22.723Z,5.43
2022-10-15T12:58:52.379Z,4.57
2022-10-15T13:01:30.818Z,7.10
2022-10-15T13:04:01.559Z,2.93
2022-10-15T13:06:36.061Z,2.47
2022-10-15T13:09:25.777Z,4.90
2022-10-15T13:11:55.653Z,4.10
2022-10-15T13:14:33.712Z,2.47
2022-10-15T13:17:06.221Z,4.47
2022-10-15T13:19:39.670Z,6.13
2022-10-15T13:22:21.382Z,4.20
2022-10-15T13:24:49.824Z,4.63
2022-10-15T13:27:24.121Z,6.10
2022-10-15T13:29:57.048Z,6.50
2022-10-15T13:32:27.598Z,7.77
2022-10-15T13:34:58.718Z,7.17
2022-10-15T13:37:32.887Z,5.73
2022-10-15T13:40:06.530Z,6.97
2022-10-15T13:42:36.861Z,6.63
2022-10-15T13:45:16.555Z,6.83
2022-10-15T13:47:49.395Z,7.50
2022-10-15T13:50:25.398Z,12.60
2022-10-15T13:52:58.563Z,11.50
2022-10-15T13:55:29.522Z,10.23
2022-10-15T13:58:02.893Z,7.10
2022-10-15T14:00:33.769Z,7.67
2022-10-15T14:03:09.660Z,7.53
2022-10-15T14:05:39.731Z,11.53
2022-10-15T14:08:15.818Z,6.93
2022-10-15T14:10:44.129Z,9.87
2022-10-15T14:13:12.709Z,7.20
2022-10-15T14:15:47.947Z,8.17
2022-10-15T14:18:19.414Z,7.83
2022-10-15T14:20:50.543Z,7.23
2022-10-15T14:23:23.390Z,9.37
2022-10-15T14:25:57.026Z,5.93
2022-10-15T14:28:27.195Z,5.63
2022-10-15T14:30:56.456Z,5.97
2022-10-15T14:33:45.602Z,6.57
2022-10-15T14:36:27.843Z,6.17
2022-10-15T14:38:57.184Z,6.60
2022-10-15T14:41:29.523Z,5.90
2022-10-15T14:44:17.945Z,5.97
2022-10-15T14:46:48.992Z,4.37
2022-10-15T14:49:27.765Z,11.30
2022-10-15T14:52:02.303Z,6.60
2022-10-15T14:54:36.459Z,7.90
2022-10-15T14:57:05.424Z,8.70
2022-10-15T14:59:38.619Z,5.90
2022-10-15T15:02:15.714Z,9.97
2022-10-15T15:05:05.265Z,6.37
2022-10-15T15:07:35.194Z,5.80
2022-10-15T15:10:03.356Z,8.07
2022-10-15T15:12:33.137Z,6.03
2022-10-15T15:15:02.269Z,7.13
2022-10-15T15:17:31.609Z,6.30
2022-10-15T15:19:59.875Z,11.30
2022-10-15T15:22:32.085Z,8.17
2022-10-15T15:25:04.673Z,8.07
2022-10-15T15:27:37.291Z,9.07
2022-10-15T15:30:08.363Z,9.23
2022-10-15T15:32:36.571Z,6.50
2022-10-15T15:35:17.758Z,8.63
2022-10-15T15:37:45.988Z,7.87
2022-10-15T15:40:15.864Z,7.97
2022-10-15T15:42:44.560Z,8.50
2022-10-15T15:45:19.768Z,8.87
2022-10-15T15:47:47.926Z,7.60
2022-10-15T15:50:16.772Z,7.47
2022-10-15T15:52:45.069Z,10.10
2022-10-15T15:55:15.960Z,7.20
2022-10-15T15:57:45.405Z,8.73
2022-10-15T16:00:14.961Z,8.03
2022-10-15T16:02:43.240Z,8.73
2022-10-15T16:05:15.963Z,7.80
2022-10-15T16:07:44.482Z,8.93
2022-10-15T16:10:13.089Z,9.47
2022-10-15T16:12:44.233Z,10.20
2022-10-15T16:15:14.709Z,11.20
2022-10-15T16:17:43.713Z,8.70
2022-10-15T16:20:13.623Z,9.83
2022-10-15T16:22:42.753Z,10.87
2022-10-15T16:25:11.540Z,13.27
2022-10-15T16:27:39.852Z,12.97
2022-10-15T16:30:09.966Z,12.47
2022-10-15T16:32:38.259Z,9.73
2022-10-15T16:35:07.695Z,13.33
2022-10-15T16:37:35.776Z,9.60
2022-10-15T16:40:04.330Z,11.37
2022-10-15T16:42:32.569Z,11.10
2022-10-15T16:45:00.575Z,12.50
2022-10-15T16:47:30.161Z,14.20
2022-10-15T16:49:58.382Z,16.23
2022-10-15T16:52:27.352Z,12.63
2022-10-15T16:54:55.824Z,12.40
2022-10-15T16:57:24.459Z,14.77
2022-10-15T16:59:52.682Z,12.90
2022-10-15T17:02:20.900Z,14.10
2022-10-15T17:04:50.721Z,12.87
2022-10-15T17:07:19.148Z,12.67
2022-10-15T17:12:18.041Z,13.10
2022-10-15T17:14:50.815Z,13.33
2022-10-15T17:17:19.223Z,12.37
2022-10-15T17:19:47.406Z,12.60
2022-10-15T17:22:17.022Z,13.97
2022-10-15T17:24:45.382Z,13.07
2022-10-15T17:27:13.640Z,13.97
2022-10-15T17:29:41.761Z,12.30
2022-10-15T17:32:09.977Z,9.70
2022-10-15T17:34:38.435Z,13.03
2022-10-15T17:37:06.585Z,9.70
2022-10-15T17:39:36.320Z,14.17
2022-10-15T17:42:04.638Z,11.20
2022-10-15T17:44:32.820Z,10.00
2022-10-15T17:47:01.052Z,12.70
2022-10-15T17:49:29.283Z,13.00
2022-10-15T17:51:57.405Z,13.77
2022-10-15T17:54:25.820Z,11.77
2022-10-15T17:56:55.235Z,12.60
2022-10-15T17:59:23.545Z,15.63
2022-10-15T18:02:00.183Z,13.03
2022-10-15T18:04:29.582Z,10.93
2022-10-15T18:06:58.108Z,10.30
2022-10-15T18:09:26.577Z,10.93
2022-10-15T18:11:56.669Z,12.57
2022-10-15T18:14:24.859Z,12.40
2022-10-15T18:16:53.209Z,12.33
2022-10-15T18:19:21.421Z,14.17
2022-10-15T18:21:50.098Z,15.17
2022-10-15T18:24:21.719Z,15.40
2022-10-15T18:26:50.777Z,16.17
2022-10-15T18:29:20.580Z,16.07
2022-10-15T18:31:52.222Z,15.70
2022-10-15T18:34:23.522Z,16.10
2022-10-15T18:36:51.608Z,17.10
2022-10-15T18:39:19.674Z,20.30
2022-10-15T18:41:47.938Z,17.70
2022-10-15T18:44:17.976Z,20.27
2022-10-15T18:46:47.524Z,15.77
2022-10-15T18:49:17.317Z,16.80
2022-10-15T18:51:46.686Z,16.70
2022-10-15T18:54:15.281Z,17.10
2022-10-15T18:56:43.417Z,20.13
2022-10-15T18:59:11.582Z,21.70
2022-10-15T19:01:43.260Z,15.50
2022-10-15T19:04:14.612Z,18.73
2022-10-15T19:06:44.512Z,16.10
2022-10-15T19:09:15.174Z,14.10
2022-10-15T19:11:45.353Z,17.53
2022-10-15T19:14:15.453Z,17.33
2022-10-15T19:16:44.347Z,19.07
2022-10-15T19:19:16.357Z,16.70
2022-10-15T19:21:44.542Z,22.00
2022-10-15T19:24:13.015Z,23.63
2022-10-15T19:26:41.540Z,26.33
2022-10-15T19:29:10.592Z,21.87
2022-10-15T19:31:41.157Z,22.40
2022-10-15T19:34:09.623Z,20.30
2022-10-15T19:36:41.480Z,22.57
2022-10-15T19:39:12.833Z,25.60
2022-10-15T19:41:42.434Z,19.57
2022-10-15T19:44:12.980Z,23.37
2022-10-15T19:46:42.069Z,24.70
2022-10-15T19:49:13.278Z,26.00
2022-10-15T19:51:42.890Z,23.60
2022-10-15T19:54:11.428Z,25.30
2022-10-15T19:56:39.685Z,30.10
2022-10-15T19:59:09.185Z,25.80
2022-10-15T20:01:37.632Z,25.73
2022-10-15T20:04:07.064Z,27.40
2022-10-15T20:06:36.346Z,29.33
2022-10-15T20:09:06.728Z,24.20
2022-10-15T20:11:34.896Z,26.33
2022-10-15T20:14:03.556Z,27.27
2022-10-15T20:16:33.471Z,22.67
2022-10-15T20:19:02.922Z,23.13
2022-10-15T20:21:31.048Z,27.17
2022-10-15T20:23:59.648Z,21.20
2022-10-15T20:26:29.094Z,22.37
2022-10-15T20:28:57.636Z,22.23
2022-10-15T20:31:29.127Z,21.30
2022-10-15T20:33:57.171Z,17.37
2022-10-15T20:36:27.381Z,24.87
2022-10-15T20:38:57.590Z,22.30
2022-10-15T20:41:25.884Z,23.87
2022-10-15T20:43:56.713Z,20.27
2022-10-15T20:46:28.678Z,19.97
2022-10-15T20:48:59.596Z,26.60
2022-10-15T20:51:28.985Z,22.37
2022-10-15T20:53:58.916Z,20.10
2022-10-15T20:56:27.257Z,23.10
2022-10-15T20:58:56.634Z,17.47
2022-10-15T21:01:25.277Z,26.67
2022-10-15T21:03:53.657Z,19.53
2022-10-15T21:06:21.732Z,18.73
2022-10-15T21:08:50.390Z,21.77
2022-10-15T21:11:18.843Z,25.00
2022-10-15T21:13:47.097Z,20.57
2022-10-15T21:16:17.033Z,22.43
2022-10-15T21:18:45.206Z,21.27
2022-10-15T21:21:15.009Z,18.50
2022-10-15T21:23:43.861Z,20.00
2022-10-15T21:26:13.644Z,22.93
2022-10-15T21:28:42.128Z,21.23
2022-10-15T21:31:12.138Z,19.47
2022-10-15T21:33:41.997Z,16.07
2022-10-15T21:36:14.975Z,19.43
2022-10-15T21:38:43.722Z,21.70
2022-10-15T21:41:11.783Z,21.47
2022-10-15T21:43:40.175Z,19.57
2022-10-15T21:46:10.837Z,20.67
2022-10-15T21:48:39.847Z,23.03
2022-10-15T21:51:13.212Z,25.90
2022-10-15T21:53:41.992Z,21.80
2022-10-15T21:56:10.693Z,18.50
2022-10-15T21:58:41.433Z,20.13
2022-10-15T22:01:13.566Z,22.07
2022-10-15T22:03:44.578Z,24.10
2022-10-15T22:06:14.812Z,18.23
2022-10-15T22:08:43.474Z,27.70
2022-10-15T22:11:14.327Z,18.10
2022-10-15T22:13:43.205Z,21.63
2022-10-15T22:16:11.783Z,22.93
2022-10-15T22:18:41.697Z,25.47
2022-10-15T22:21:15.451Z,24.77
2022-10-15T22:23:46.564Z,22.57
2022-10-15T22:26:15.237Z,18.13
2022-10-15T22:28:44.950Z,11.33
2022-10-15T22:31:15.027Z,16.37
2022-10-15T22:33:43.666Z,15.50
2022-10-15T22:36:15.933Z,16.23
2022-10-15T22:38:47.455Z,20.43
2022-10-15T22:41:16.794Z,27.73
2022-10-15T22:43:45.278Z,26.77
2022-10-15T22:46:13.861Z,25.43
2022-10-15T22:48:43.541Z,31.30
2022-10-15T22:51:13.706Z,25.40
2022-10-15T22:53:42.015Z,26.80
2022-10-15T22:56:14.350Z,24.53
2022-10-15T22:58:43.033Z,21.20
2022-10-15T23:01:13.750Z,24.53
2022-10-15T23:03:43.283Z,21.20
2022-10-15T23:06:12.450Z,26.63
2022-10-15T23:08:40.830Z,22.03
2022-10-15T23:11:12.617Z,23.87
2022-10-15T23:13:41.781Z,25.43
2022-10-15T23:16:13.940Z,29.77
2022-10-15T23:18:43.789Z,20.13
2022-10-15T23:21:14.851Z,24.17
2022-10-15T23:23:44.520Z,29.37
2022-10-15T23:26:15.684Z,31.23
2022-10-15T23:28:44.843Z,32.30
2022-10-15T23:31:17.349Z,25.30
2022-10-15T23:33:45.586Z,30.57
2022-10-15T23:36:13.828Z,28.10
2022-10-15T23:38:42.168Z,29.63
2022-10-15T23:41:11.221Z,23.40
2022-10-15T23:43:40.907Z,26.97
2022-10-15T23:46:09.842Z,32.23
2022-10-15T23:48:38.354Z,28.30
2022-10-15T23:51:13.694Z,22.57
2022-10-15T23:56:10.382Z,23.30
2022-10-15T23:58:38.658Z,23.20
